Time;durP1;ratioP1;P1;durP2;ratioP2;P2;SDS_P1;SDS_P2;PMS_P1;PMS_P2;Temp;Humidity;BMP_temperature;BMP_pressure;BME280_temperature;BME280_humidity;BME280_pressure;Samples;Min_cycle;Max_cycle;Signal;HPM_P1;HPM_P2
2021/09/12 05:02:04;;;;;;;14.07;7.88;;;;;;;;;;5298150;22;20049;-81
2021/09/12 05:04:29;;;;;;;23.05;8.02;;;;;;;;;;5015814;28;20058;-81
2021/09/12 05:06:54;;;;;;;14.90;7.67;;;;;;;;;;4983234;28;20017;-82
2021/09/12 05:09:23;;;;;;;13.80;7.53;;;;;;;;;;4983404;28;20191;-81
2021/09/12 05:11:48;;;;;;;15.13;6.88;;;;;;;;;;4962421;28;20397;-83
2021/09/12 05:14:14;;;;;;;12.63;7.40;;;;;;;;;;4977101;28;20117;-81
2021/09/12 05:16:39;;;;;;;16.10;7.80;;;;;;;;;;4976861;28;20058;-81
2021/09/12 05:19:04;;;;;;;13.57;7.63;;;;;;;;;;4976168;28;20113;-82
2021/09/12 05:21:30;;;;;;;16.60;8.30;;;;;;;;;;4976769;28;20065;-81
2021/09/12 05:23:55;;;;;;;14.90;7.77;;;;;;;;;;4960498;28;20569;-82
2021/09/12 05:26:20;;;;;;;14.17;7.73;;;;;;;;;;4960595;28;20109;-82
2021/09/12 05:28:46;;;;;;;15.77;7.97;;;;;;;;;;4960726;28;20161;-81
2021/09/12 05:31:11;;;;;;;13.30;7.73;;;;;;;;;;4979351;28;20113;-83
2021/09/12 05:33:36;;;;;;;14.50;7.57;;;;;;;;;;4995800;28;20514;-81
2021/09/12 05:36:02;;;;;;;10.83;6.50;;;;;;;;;;4996004;28;20561;-81
2021/09/12 05:38:27;;;;;;;15.50;6.93;;;;;;;;;;4980079;28;20030;-81
2021/09/12 05:40:53;;;;;;;15.17;7.90;;;;;;;;;;4989154;28;20034;-81
2021/09/12 05:43:18;;;;;;;13.10;7.30;;;;;;;;;;4979349;28;20025;-81
2021/09/12 05:45:43;;;;;;;13.00;6.73;;;;;;;;;;4979604;28;20161;-81
2021/09/12 05:48:09;;;;;;;13.33;6.83;;;;;;;;;;4977297;28;20513;-81
2021/09/12 05:50:34;;;;;;;12.57;6.83;;;;;;;;;;4971054;28;20029;-81
2021/09/12 05:53:18;;;;;;;10.17;5.80;;;;;;;;;;4988115;28;20117;-83
2021/09/12 05:55:43;;;;;;;12.75;6.32;;;;;;;;;;4968073;28;20021;-82
2021/09/12 05:58:14;;;;;;;12.00;6.50;;;;;;;;;;4979619;28;20037;-85
2021/09/12 06:00:40;;;;;;;14.23;7.28;;;;;;;;;;4995402;28;20033;-83
2021/09/12 06:03:06;;;;;;;14.33;7.70;;;;;;;;;;4979393;28;20030;-83
2021/09/12 06:05:31;;;;;;;16.63;8.00;;;;;;;;;;4979446;28;20458;-83
2021/09/12 06:07:58;;;;;;;15.07;7.07;;;;;;;;;;4979293;28;20045;-84
2021/09/12 06:10:23;;;;;;;;;;;;;;;;;;4979586;28;20490;-82
2021/09/12 06:12:48;;;;;;;13.60;7.07;;;;;;;;;;4978782;28;19910;-85
2021/09/12 06:15:13;;;;;;;12.77;7.37;;;;;;;;;;4986653;28;20024;-84
2021/09/12 06:17:39;;;;;;;15.83;7.90;;;;;;;;;;4962898;28;20622;-85
2021/09/12 06:20:05;;;;;;;12.30;6.90;;;;;;;;;;4980669;28;20045;-85
2021/09/12 06:22:31;;;;;;;13.30;7.65;;;;;;;;;;4959089;28;20029;-85
2021/09/12 06:24:56;;;;;;;13.80;7.33;;;;;;;;;;4975556;28;20113;-85
2021/09/12 06:27:25;;;;;;;11.83;7.40;;;;;;;;;;4975225;28;20030;-85
2021/09/12 06:29:50;;;;;;;12.23;7.10;;;;;;;;;;4974762;28;20076;-85
2021/09/12 06:32:15;;;;;;;12.40;6.33;;;;;;;;;;4959455;28;20113;-86
2021/09/12 06:34:41;;;;;;;10.73;6.50;;;;;;;;;;4959257;28;20467;-84
2021/09/12 06:37:07;;;;;;;10.73;6.30;;;;;;;;;;4959774;28;20168;-84
2021/09/12 06:39:32;;;;;;;11.13;6.17;;;;;;;;;;4959812;28;20113;-85
2021/09/12 06:41:58;;;;;;;10.37;6.03;;;;;;;;;;4959401;28;20038;-84
2021/09/12 06:44:23;;;;;;;9.27;5.83;;;;;;;;;;4975600;28;20479;-84
2021/09/12 06:46:48;;;;;;;10.33;5.97;;;;;;;;;;4975328;28;20513;-84
2021/09/12 06:49:14;;;;;;;10.37;6.37;;;;;;;;;;4943319;28;20022;-84
2021/09/12 06:51:39;;;;;;;10.47;6.07;;;;;;;;;;4975298;28;20446;-85
2021/09/12 06:54:04;;;;;;;9.40;5.27;;;;;;;;;;4975278;28;20065;-85
2021/09/12 06:56:30;;;;;;;9.47;5.60;;;;;;;;;;4975152;28;20160;-85
2021/09/12 06:58:55;;;;;;;8.83;5.43;;;;;;;;;;4975036;28;20459;-85
2021/09/12 07:01:21;;;;;;;9.73;5.67;;;;;;;;;;4942777;28;20117;-84
2021/09/12 07:03:46;;;;;;;7.63;4.93;;;;;;;;;;4959268;28;20097;-85
2021/09/12 07:06:11;;;;;;;7.67;4.60;;;;;;;;;;4943133;28;20076;-84
2021/09/12 07:08:37;;;;;;;9.50;4.87;;;;;;;;;;4959048;28;20113;-85
2021/09/12 07:11:02;;;;;;;;;;;;;;;;;;4943220;28;20121;-85
2021/09/12 07:13:28;;;;;;;7.85;4.30;;;;;;;;;;4958657;28;19909;-85
2021/09/12 07:15:54;;;;;;;7.15;4.57;;;;;;;;;;4958930;28;20019;-85
2021/09/12 07:18:19;;;;;;;6.80;4.72;;;;;;;;;;4943005;28;20113;-85
2021/09/12 07:20:44;;;;;;;9.80;5.40;;;;;;;;;;4974753;28;20134;-85
2021/09/12 07:23:10;;;;;;;7.35;5.35;;;;;;;;;;4974665;28;20109;-85
2021/09/12 07:25:35;;;;;;;8.18;5.70;;;;;;;;;;4974880;28;20121;-85
2021/09/12 07:28:01;;;;;;;11.90;6.38;;;;;;;;;;4942672;28;20593;-85
2021/09/12 07:30:26;;;;;;;8.65;6.00;;;;;;;;;;4958489;28;20475;-85
2021/09/12 07:32:52;;;;;;;9.95;6.45;;;;;;;;;;4958261;28;20102;-85
2021/09/12 07:35:17;;;;;;;11.68;7.15;;;;;;;;;;4974692;28;20085;-85
2021/09/12 07:37:42;;;;;;;10.80;6.93;;;;;;;;;;4942954;28;20125;-85
2021/09/12 07:40:08;;;;;;;11.65;7.30;;;;;;;;;;4974949;28;20053;-85
2021/09/12 07:42:34;;;;;;;;;;;;;;;;;;4977506;28;20125;-85
2021/09/12 07:44:59;;;;;;;13.17;7.20;;;;;;;;;;4980255;28;19914;-84
2021/09/12 07:47:24;;;;;;;12.13;7.67;;;;;;;;;;4978311;28;20281;-84
2021/09/12 07:49:50;;;;;;;11.87;7.60;;;;;;;;;;4989495;28;20832;-84
2021/09/12 07:52:15;;;;;;;15.37;7.33;;;;;;;;;;4997968;28;20029;-84
2021/09/12 07:54:40;;;;;;;12.07;7.50;;;;;;;;;;4998681;28;20301;-84
2021/09/12 07:57:06;;;;;;;11.70;7.47;;;;;;;;;;4996442;28;20108;-85
2021/09/12 07:59:31;;;;;;;12.33;7.23;;;;;;;;;;4982984;28;20469;-85
2021/09/12 08:01:56;;;;;;;10.07;6.73;;;;;;;;;;4976376;28;20121;-85
2021/09/12 08:04:22;;;;;;;11.97;6.87;;;;;;;;;;4979949;28;20074;-85
2021/09/12 08:06:47;;;;;;;13.40;7.78;;;;;;;;;;4993388;28;20277;-84
2021/09/12 08:09:13;;;;;;;11.13;6.83;;;;;;;;;;4949308;28;20729;-85
2021/09/12 08:11:38;;;;;;;12.30;7.22;;;;;;;;;;4972354;28;20022;-85
2021/09/12 08:14:03;;;;;;;9.30;5.80;;;;;;;;;;4975390;28;20037;-84
2021/09/12 08:16:29;;;;;;;9.82;6.05;;;;;;;;;;4967913;28;20022;-85
2021/09/12 08:18:54;;;;;;;10.00;6.13;;;;;;;;;;4977130;28;20033;-85
2021/09/12 08:21:20;;;;;;;;;;;;;;;;;;4997465;28;20030;-85
2021/09/12 08:23:45;;;;;;;12.93;6.45;;;;;;;;;;4996917;28;19913;-85
2021/09/12 08:26:10;;;;;;;;;;;;;;;;;;4987510;28;20506;-86
2021/09/12 08:28:36;;;;;;;8.97;6.00;;;;;;;;;;4980704;28;20008;-85
2021/09/12 08:31:01;;;;;;;10.20;6.10;;;;;;;;;;4996943;28;20030;-85
2021/09/12 08:33:27;;;;;;;9.13;5.03;;;;;;;;;;4989511;28;20030;-85
2021/09/12 08:35:52;;;;;;;7.53;5.28;;;;;;;;;;4980905;28;20057;-85
2021/09/12 08:38:17;;;;;;;8.38;5.68;;;;;;;;;;4960698;28;20495;-85
2021/09/12 08:40:44;;;;;;;8.55;6.00;;;;;;;;;;4946945;28;20022;-85
2021/09/12 08:43:09;;;;;;;7.55;5.00;;;;;;;;;;4961053;28;20045;-86
2021/09/12 08:45:35;;;;;;;5.88;4.50;;;;;;;;;;4976534;28;20097;-85
2021/09/12 08:48:01;;;;;;;7.65;4.82;;;;;;;;;;4959252;28;20026;-87
2021/09/12 08:50:26;;;;;;;6.82;3.95;;;;;;;;;;4944958;28;20410;-85
2021/09/12 08:52:51;;;;;;;8.88;5.43;;;;;;;;;;4960568;28;20030;-86
2021/09/12 08:55:17;;;;;;;6.00;4.07;;;;;;;;;;4975137;28;20097;-85
2021/09/12 08:57:49;;;;;;;6.45;4.18;;;;;;;;;;4985074;28;20121;-86
2021/09/12 09:00:25;;;;;;;6.90;4.45;;;;;;;;;;4984428;28;20390;-85
2021/09/12 09:02:55;;;;;;;;;;;;;;;;;;4980872;28;20029;-86
2021/09/12 09:05:27;;;;;;;6.07;3.97;;;;;;;;;;4990012;28;19956;-83
2021/09/12 09:08:03;;;;;;;5.10;3.40;;;;;;;;;;4980527;28;20033;-85
2021/09/12 09:10:28;;;;;;;4.78;3.15;;;;;;;;;;4980985;28;20176;-85
2021/09/12 09:12:56;;;;;;;5.50;3.50;;;;;;;;;;4996946;28;20108;-85
2021/09/12 09:15:21;;;;;;;4.85;3.30;;;;;;;;;;4996913;28;20028;-83
2021/09/12 09:17:47;;;;;;;5.25;3.30;;;;;;;;;;4980962;28;20120;-84
2021/09/12 09:20:18;;;;;;;4.82;3.20;;;;;;;;;;4996885;28;20060;-83
2021/09/12 09:22:59;;;;;;;4.88;3.38;;;;;;;;;;4976956;28;20030;-84
2021/09/12 09:25:30;;;;;;;4.93;3.00;;;;;;;;;;4976786;28;20486;-83
2021/09/12 09:31:07;;;;;;;4.10;2.40;;;;;;;;;;4999322;28;20045;-85
2021/09/12 09:33:33;;;;;;;4.57;2.92;;;;;;;;;;4966062;28;20092;-83
2021/09/12 09:36:02;;;;;;;3.42;2.70;;;;;;;;;;4965986;28;20018;-85
2021/09/12 09:38:30;;;;;;;4.38;3.50;;;;;;;;;;4970319;28;20491;-83
2021/09/12 09:41:11;;;;;;;5.00;3.50;;;;;;;;;;4965567;28;20041;-83
2021/09/12 09:43:51;;;;;;;4.55;3.25;;;;;;;;;;4988712;28;20526;-82
2021/09/12 09:46:40;;;;;;;3.90;2.67;;;;;;;;;;4998805;28;20053;-83
2021/09/12 09:50:00;;;;;;;;;;;;;;;;;;;;;
2021/09/12 09:52:14;;;;;;;4.75;2.92;;;;;;;;;;4992282;28;20085;-84
2021/09/12 09:54:40;;;;;;;4.22;2.42;;;;;;;;;;4977462;28;20117;-83
2021/09/12 09:57:05;;;;;;;6.03;2.70;;;;;;;;;;4972091;28;20133;-83
2021/09/12 09:59:30;;;;;;;6.00;3.10;;;;;;;;;;4976411;28;20534;-82
2021/09/12 10:01:57;;;;;;;5.78;3.55;;;;;;;;;;4961197;28;20034;-82
2021/09/12 10:04:23;;;;;;;5.13;3.50;;;;;;;;;;4975887;28;20029;-82
2021/09/12 10:06:49;;;;;;;6.07;3.58;;;;;;;;;;5011892;28;20057;-82
2021/09/12 10:09:15;;;;;;;5.63;3.70;;;;;;;;;;4995258;28;20482;-82
2021/09/12 10:11:42;;;;;;;5.88;3.55;;;;;;;;;;4994890;28;20025;-81
2021/09/12 10:14:16;;;;;;;6.75;3.65;;;;;;;;;;4975941;28;20109;-83
2021/09/12 10:16:42;;;;;;;4.97;3.33;;;;;;;;;;4959943;28;20030;-82
2021/09/12 10:19:08;;;;;;;5.10;3.53;;;;;;;;;;4959632;28;20061;-83
2021/09/12 10:21:33;;;;;;;;;;;;;;;;;;4978059;28;20105;-82
2021/09/12 10:24:00;;;;;;;5.47;3.80;;;;;;;;;;4998210;28;19960;-82
2021/09/12 10:26:46;;;;;;;4.70;3.10;;;;;;;;;;4977878;28;20042;-82
2021/09/12 10:29:46;;;;;;;5.60;3.40;;;;;;;;;;4968674;28;20034;-82
2021/09/12 10:32:35;;;;;;;4.97;3.30;;;;;;;;;;4984810;28;20030;-83
2021/09/12 10:35:28;;;;;;;3.78;2.65;;;;;;;;;;4960701;28;20034;-84
2021/09/12 10:38:04;;;;;;;4.70;2.80;;;;;;;;;;4963355;28;20034;-82
2021/09/12 10:41:02;;;;;;;4.55;2.67;;;;;;;;;;4961816;28;20022;-82
2021/09/12 10:43:28;;;;;;;4.03;2.40;;;;;;;;;;4944441;28;20050;-82
2021/09/12 10:46:08;;;;;;;5.47;2.45;;;;;;;;;;4993960;28;20080;-83
2021/09/12 10:48:43;;;;;;;4.85;2.50;;;;;;;;;;4994308;28;20037;-83
2021/09/12 10:51:29;;;;;;;5.13;2.20;;;;;;;;;;4969189;28;20014;-83
2021/09/12 10:54:01;;;;;;;3.35;2.17;;;;;;;;;;4974674;28;20023;-82
2021/09/12 10:56:28;;;;;;;3.50;2.42;;;;;;;;;;4962270;28;20022;-83
2021/09/12 10:59:05;;;;;;;4.28;2.70;;;;;;;;;;5010236;28;20141;-86
2021/09/12 11:01:33;;;;;;;4.53;2.70;;;;;;;;;;5009860;28;20038;-86
2021/09/12 11:04:05;;;;;;;4.20;2.70;;;;;;;;;;4992994;28;20104;-86
2021/09/12 11:06:48;;;;;;;3.65;2.60;;;;;;;;;;5005518;28;20030;-85
2021/09/12 11:09:23;;;;;;;4.45;2.72;;;;;;;;;;4989809;28;20056;-85
2021/09/12 11:12:00;;;;;;;4.60;2.40;;;;;;;;;;4977608;28;20160;-85
2021/09/12 11:14:26;;;;;;;4.97;2.55;;;;;;;;;;4993150;28;20095;-85
2021/09/12 11:17:07;;;;;;;4.70;2.83;;;;;;;;;;4993603;28;20613;-86
2021/09/12 11:19:36;;;;;;;4.45;2.88;;;;;;;;;;5009032;28;20490;-85
2021/09/12 11:22:04;;;;;;;3.42;2.30;;;;;;;;;;4978261;28;20033;-85
2021/09/12 11:24:30;;;;;;;4.57;2.70;;;;;;;;;;4993193;28;20021;-85
2021/09/12 11:27:06;;;;;;;;;;;;;;;;;;4963219;28;20029;-84
2021/09/12 11:29:41;;;;;;;4.68;2.25;;;;;;;;;;4982031;28;19909;-85
2021/09/12 11:32:42;;;;;;;6.97;3.20;;;;;;;;;;4978374;28;20432;-85
2021/09/12 11:35:13;;;;;;;5.68;2.88;;;;;;;;;;4995291;28;20478;-86
2021/09/12 11:37:39;;;;;;;6.10;2.80;;;;;;;;;;4963424;28;20041;-85
2021/09/12 11:40:05;;;;;;;4.90;2.90;;;;;;;;;;4962475;28;20034;-85
2021/09/12 11:42:31;;;;;;;5.20;2.60;;;;;;;;;;4961649;28;20076;-86
2021/09/12 11:44:57;;;;;;;3.30;2.00;;;;;;;;;;4961360;28;20501;-87
2021/09/12 11:47:28;;;;;;;3.67;2.20;;;;;;;;;;4977390;28;20057;-85
2021/09/12 11:50:16;;;;;;;3.33;2.00;;;;;;;;;;4977228;28;20075;-86
2021/09/12 11:52:50;;;;;;;4.00;2.13;;;;;;;;;;4995014;28;20550;-87
2021/09/12 11:55:20;;;;;;;4.95;2.22;;;;;;;;;;4993352;28;20018;-87
2021/09/12 11:58:06;;;;;;;4.07;2.47;;;;;;;;;;4993578;28;20042;-87
2021/09/12 12:00:33;;;;;;;3.80;2.40;;;;;;;;;;4975516;28;20070;-86
2021/09/12 12:02:58;;;;;;;3.58;2.20;;;;;;;;;;4941882;28;20057;-86
2021/09/12 12:05:25;;;;;;;4.20;2.50;;;;;;;;;;4957916;28;20490;-86
2021/09/12 12:07:52;;;;;;;3.90;2.60;;;;;;;;;;4944775;28;20277;-86
2021/09/12 12:10:34;;;;;;;5.80;3.10;;;;;;;;;;4959934;28;20053;-87
2021/09/12 12:13:00;;;;;;;4.40;2.90;;;;;;;;;;4955330;28;20116;-86
2021/09/12 12:15:36;;;;;;;5.07;2.90;;;;;;;;;;4941607;28;20489;-86
2021/09/12 12:18:20;;;;;;;5.80;3.35;;;;;;;;;;4942178;28;20126;-86
2021/09/12 12:20:46;;;;;;;5.30;2.65;;;;;;;;;;4968974;28;20121;-86
2021/09/12 12:23:19;;;;;;;;;;;;;;;;;;4992514;28;20033;-86
2021/09/12 12:25:51;;;;;;;3.75;2.78;;;;;;;;;;4974384;28;19914;-87
2021/09/12 12:28:28;;;;;;;3.85;2.75;;;;;;;;;;4976428;28;20022;-87
2021/09/12 12:31:10;;;;;;;4.13;2.60;;;;;;;;;;4945789;28;20038;-85
2021/09/12 12:33:36;;;;;;;4.90;2.70;;;;;;;;;;4961360;28;20367;-85
2021/09/12 12:36:09;;;;;;;4.63;2.67;;;;;;;;;;4961245;28;20027;-87
2021/09/12 12:38:38;;;;;;;4.38;2.33;;;;;;;;;;4961586;28;20122;-87
2021/09/12 12:41:11;;;;;;;3.80;2.30;;;;;;;;;;4961504;28;20026;-85
2021/09/12 12:43:37;;;;;;;4.07;2.30;;;;;;;;;;4946358;28;20039;-87
2021/09/12 12:46:03;;;;;;;4.82;2.80;;;;;;;;;;4962315;28;20034;-87
2021/09/12 12:48:29;;;;;;;4.45;2.30;;;;;;;;;;4969150;28;20509;-87
2021/09/12 12:51:00;;;;;;;4.88;2.20;;;;;;;;;;4981928;28;20105;-87
2021/09/12 12:53:55;;;;;;;4.05;2.10;;;;;;;;;;4964431;28;20109;-87
2021/09/12 12:56:29;;;;;;;3.25;1.80;;;;;;;;;;4996939;28;20025;-86
2021/09/12 12:59:17;;;;;;;4.72;2.03;;;;;;;;;;4981083;28;20518;-86
2021/09/12 13:01:43;;;;;;;3.47;1.75;;;;;;;;;;4981703;28;20050;-87
2021/09/12 13:04:09;;;;;;;3.22;2.10;;;;;;;;;;4945376;28;20027;-86
2021/09/12 13:06:35;;;;;;;2.97;2.20;;;;;;;;;;4944720;28;20395;-86
2021/09/12 13:09:01;;;;;;;;;;;;;;;;;;4945552;28;20022;-86
2021/09/12 13:11:34;;;;;;;3.92;2.38;;;;;;;;;;4993171;28;19910;-86
2021/09/12 13:14:06;;;;;;;3.40;2.10;;;;;;;;;;4961017;28;20030;-86
2021/09/12 13:16:35;;;;;;;4.53;2.40;;;;;;;;;;4979946;28;20537;-87
2021/09/12 13:19:01;;;;;;;4.65;2.30;;;;;;;;;;4996354;28;20501;-87
2021/09/12 13:21:27;;;;;;;3.55;2.10;;;;;;;;;;4980143;28;20026;-87
2021/09/12 13:23:53;;;;;;;3.67;2.40;;;;;;;;;;4979773;28;20037;-86
2021/09/12 13:26:18;;;;;;;4.67;2.20;;;;;;;;;;4996324;28;20050;-86
2021/09/12 13:28:44;;;;;;;3.10;2.13;;;;;;;;;;4980379;28;20108;-86
2021/09/12 13:31:09;;;;;;;3.27;2.17;;;;;;;;;;4996023;28;20129;-87
2021/09/12 13:33:34;;;;;;;4.60;2.40;;;;;;;;;;4989511;28;20671;-87
2021/09/12 13:36:00;;;;;;;3.83;2.10;;;;;;;;;;4979841;28;20018;-87
2021/09/12 13:38:25;;;;;;;2.85;1.70;;;;;;;;;;4979859;28;20192;-87
2021/09/12 13:40:51;;;;;;;3.27;2.23;;;;;;;;;;4963966;28;20034;-86
2021/09/12 13:43:16;;;;;;;5.27;2.10;;;;;;;;;;4963316;28;20453;-86
2021/09/12 13:45:41;;;;;;;4.60;2.13;;;;;;;;;;4979828;28;20113;-87
2021/09/12 13:48:07;;;;;;;4.57;2.60;;;;;;;;;;4979771;28;20429;-86
2021/09/12 13:50:32;;;;;;;4.43;2.47;;;;;;;;;;4979527;28;20025;-86
2021/09/12 13:52:58;;;;;;;4.40;2.75;;;;;;;;;;4979222;28;20025;-87
2021/09/12 13:55:24;;;;;;;4.28;2.60;;;;;;;;;;4963488;28;20627;-87
2021/09/12 13:57:50;;;;;;;4.20;2.67;;;;;;;;;;4979197;28;20034;-86
2021/09/12 14:00:16;;;;;;;5.80;2.90;;;;;;;;;;4995496;28;20035;-87
2021/09/12 14:02:42;;;;;;;;;;;;;;;;;;4963453;28;20042;-86
2021/09/12 14:05:28;;;;;;;5.35;3.05;;;;;;;;;;4995399;28;19916;-86
2021/09/12 14:07:53;;;;;;;4.60;2.72;;;;;;;;;;4998577;28;20108;-86
2021/09/12 14:10:19;;;;;;;4.22;2.55;;;;;;;;;;4963180;28;20034;-85
2021/09/12 14:12:44;;;;;;;3.77;2.30;;;;;;;;;;4963183;28;20168;-86
2021/09/12 14:15:10;;;;;;;4.50;2.30;;;;;;;;;;4979101;28;20378;-86
2021/09/12 14:17:35;;;;;;;4.10;2.40;;;;;;;;;;4995319;28;20026;-87
2021/09/12 14:20:00;;;;;;;4.37;2.93;;;;;;;;;;4995073;28;20390;-86
2021/09/12 14:22:27;;;;;;;3.90;2.10;;;;;;;;;;4990644;28;20051;-86
2021/09/12 14:24:52;;;;;;;;;;;;;;;;;;4979484;28;20080;-87
2021/09/12 14:27:17;;;;;;;2.90;1.73;;;;;;;;;;4995150;28;20391;-84
2021/09/12 14:29:43;;;;;;;3.73;1.90;;;;;;;;;;4995021;28;20304;-86
2021/09/12 14:32:08;;;;;;;4.47;2.50;;;;;;;;;;4994976;28;20128;-86
2021/09/12 14:34:37;;;;;;;3.97;2.37;;;;;;;;;;4993260;28;20117;-86
2021/09/12 14:37:04;;;;;;;4.82;2.25;;;;;;;;;;4968313;28;20065;-87
2021/09/12 14:39:29;;;;;;;4.57;2.00;;;;;;;;;;4959449;28;20030;-87
2021/09/12 14:41:54;;;;;;;3.27;1.80;;;;;;;;;;4974960;28;20034;-86
2021/09/12 14:44:21;;;;;;;4.33;2.30;;;;;;;;;;4959208;28;20117;-86
2021/09/12 14:46:46;;;;;;;3.35;2.10;;;;;;;;;;4948607;28;20081;-86
2021/09/12 14:49:12;;;;;;;6.13;2.30;;;;;;;;;;4959321;28;20033;-86
2021/09/12 14:51:40;;;;;;;4.38;2.10;;;;;;;;;;4955968;28;20081;-85
2021/09/12 14:54:08;;;;;;;3.60;2.05;;;;;;;;;;4967258;28;20092;-86
2021/09/12 14:56:35;;;;;;;4.20;2.00;;;;;;;;;;4994620;28;20074;-86
2021/09/12 14:59:04;;;;;;;3.40;2.08;;;;;;;;;;4994759;28;20046;-86
2021/09/12 15:01:33;;;;;;;3.88;2.20;;;;;;;;;;4994935;28;20053;-86
2021/09/12 15:04:05;;;;;;;4.53;1.95;;;;;;;;;;4977568;28;20099;-86
2021/09/12 15:06:32;;;;;;;3.75;1.80;;;;;;;;;;4978037;28;20044;-86
2021/09/12 15:08:58;;;;;;;3.90;2.10;;;;;;;;;;4943171;28;20035;-85
2021/09/12 15:11:24;;;;;;;;;;;;;;;;;;4959033;28;20034;-86
2021/09/12 15:13:53;;;;;;;3.25;1.98;;;;;;;;;;4990926;28;19976;-86
2021/09/12 15:16:22;;;;;;;3.00;1.80;;;;;;;;;;4943834;28;20034;-86
2021/09/12 15:18:49;;;;;;;;;;;;;;;;;;4958714;28;20044;-86
2021/09/12 15:21:16;;;;;;;3.88;2.10;;;;;;;;;;4974160;28;19918;-86
2021/09/12 15:23:47;;;;;;;2.63;1.50;;;;;;;;;;4942103;28;20034;-86
2021/09/12 15:26:13;;;;;;;3.10;1.90;;;;;;;;;;4959028;28;20086;-86
2021/09/12 15:28:44;;;;;;;3.85;1.92;;;;;;;;;;4942574;28;20129;-86
2021/09/12 15:32:08;;;;;;;2.58;1.65;;;;;;;;;;4998841;28;20053;-86
2021/09/12 15:34:58;;;;;;;4.72;1.58;;;;;;;;;;4977194;28;20149;-86
2021/09/12 15:37:49;;;;;;;5.32;1.83;;;;;;;;;;4992919;28;20050;-85
2021/09/12 15:41:05;;;;;;;2.70;1.60;;;;;;;;;;5011195;28;20095;-85
2021/09/12 15:43:53;;;;;;;2.75;1.88;;;;;;;;;;5009422;28;20057;-85
2021/09/12 15:46:42;;;;;;;4.00;1.50;;;;;;;;;;4999312;28;20080;-86
2021/09/12 15:49:14;;;;;;;2.97;1.55;;;;;;;;;;4978126;28;20129;-86
2021/09/12 15:51:43;;;;;;;4.90;1.80;;;;;;;;;;5010760;28;20034;-84
2021/09/12 15:54:10;;;;;;;5.03;1.70;;;;;;;;;;4977506;28;20057;-85
2021/09/12 15:56:37;;;;;;;2.78;1.70;;;;;;;;;;4958492;28;20567;-86
2021/09/12 15:59:03;;;;;;;;;;;;;;;;;;4943595;28;20500;-86
2021/09/12 16:01:29;;;;;;;3.17;1.58;;;;;;;;;;4974639;28;19922;-86
2021/09/12 16:03:58;;;;;;;2.60;1.60;;;;;;;;;;4961266;28;20117;-85
2021/09/12 16:06:25;;;;;;;3.08;1.80;;;;;;;;;;4979571;28;20093;-86
2021/09/12 16:08:53;;;;;;;4.15;1.60;;;;;;;;;;4964942;28;20060;-86
2021/09/12 16:11:23;;;;;;;2.58;1.30;;;;;;;;;;4987756;28;20042;-85
2021/09/12 16:14:09;;;;;;;2.60;1.70;;;;;;;;;;4997978;28;20109;-87
2021/09/12 16:16:42;;;;;;;3.60;1.70;;;;;;;;;;4997222;28;20042;-86
2021/09/12 16:19:11;;;;;;;4.30;1.90;;;;;;;;;;4997237;28;20063;-87
2021/09/12 16:21:39;;;;;;;3.10;1.90;;;;;;;;;;4977056;28;20108;-86
2021/09/12 16:24:11;;;;;;;4.85;2.03;;;;;;;;;;4945310;28;20408;-85
2021/09/12 16:26:36;;;;;;;3.97;1.92;;;;;;;;;;4970637;28;20033;-85
2021/09/12 16:29:02;;;;;;;2.70;1.57;;;;;;;;;;4996872;28;20542;-84
2021/09/12 16:31:27;;;;;;;2.40;1.50;;;;;;;;;;4980935;28;20065;-85
2021/09/12 16:33:53;;;;;;;3.80;1.80;;;;;;;;;;4977696;28;20108;-84
2021/09/12 16:36:21;;;;;;;2.70;1.70;;;;;;;;;;4981742;28;20030;-85
2021/09/12 16:38:48;;;;;;;2.70;1.70;;;;;;;;;;4983996;28;20028;-84
2021/09/12 16:41:13;;;;;;;4.95;1.80;;;;;;;;;;4996985;28;20128;-85
2021/09/12 16:43:41;;;;;;;2.90;1.90;;;;;;;;;;4989536;28;20168;-83
2021/09/12 16:48:41;;;;;;;3.28;1.90;;;;;;;;;;4982955;28;20472;-84
2021/09/12 16:51:06;;;;;;;2.63;1.67;;;;;;;;;;4977029;28;20125;-85
2021/09/12 16:53:32;;;;;;;2.60;1.77;;;;;;;;;;4947476;28;20070;-84
2021/09/12 16:55:57;;;;;;;3.00;1.73;;;;;;;;;;4988888;28;20172;-84
2021/09/12 16:58:23;;;;;;;4.77;1.80;;;;;;;;;;4996592;28;20041;-85
2021/09/12 17:00:48;;;;;;;4.25;1.90;;;;;;;;;;4976726;28;20018;-85
2021/09/12 17:03:14;;;;;;;4.70;1.93;;;;;;;;;;4975727;28;20528;-84
2021/09/12 17:05:39;;;;;;;4.37;2.00;;;;;;;;;;4996527;28;20022;-84
2021/09/12 17:08:05;;;;;;;3.13;1.90;;;;;;;;;;4996939;28;20025;-84
2021/09/12 17:10:30;;;;;;;4.87;2.20;;;;;;;;;;4996418;28;20093;-84
2021/09/12 17:12:55;;;;;;;5.13;2.37;;;;;;;;;;4995373;28;20037;-84
2021/09/12 17:15:21;;;;;;;3.20;2.20;;;;;;;;;;4996445;28;20124;-83
2021/09/12 17:17:49;;;;;;;3.70;2.30;;;;;;;;;;4992015;28;20548;-83
2021/09/12 17:20:14;;;;;;;3.40;1.92;;;;;;;;;;4960814;28;20571;-83
2021/09/12 17:22:40;;;;;;;4.23;2.07;;;;;;;;;;4975991;28;20038;-83
2021/09/12 17:25:08;;;;;;;3.30;2.10;;;;;;;;;;4960213;28;20077;-82
2021/09/12 17:27:33;;;;;;;3.38;2.10;;;;;;;;;;4976499;28;20088;-83
2021/09/12 17:29:59;;;;;;;5.77;2.17;;;;;;;;;;4967570;28;20060;-82
2021/09/12 17:32:24;;;;;;;5.55;2.35;;;;;;;;;;4963018;28;20077;-82
2021/09/12 17:34:50;;;;;;;3.77;2.07;;;;;;;;;;4963387;28;20504;-83
2021/09/12 17:37:16;;;;;;;4.30;2.30;;;;;;;;;;4995561;28;20472;-83
2021/09/12 17:39:41;;;;;;;4.30;2.00;;;;;;;;;;4978530;28;20022;-83
2021/09/12 17:42:13;;;;;;;6.37;2.50;;;;;;;;;;4980380;28;20401;-82
2021/09/12 17:44:38;;;;;;;4.55;2.28;;;;;;;;;;4962121;28;20129;-82
2021/09/12 17:47:04;;;;;;;4.47;2.63;;;;;;;;;;4973040;28;20202;-82
2021/09/12 17:49:29;;;;;;;4.17;2.37;;;;;;;;;;4961633;28;20033;-82
2021/09/12 17:51:55;;;;;;;8.43;2.83;;;;;;;;;;4962352;28;20026;-82
2021/09/12 17:54:21;;;;;;;;;;;;;;;;;;4978699;28;20038;-81
2021/09/12 17:56:46;;;;;;;6.27;2.70;;;;;;;;;;4977746;28;19988;-81
2021/09/12 17:59:12;;;;;;;4.43;2.60;;;;;;;;;;4985476;28;20309;-82
2021/09/12 18:01:37;;;;;;;5.73;2.70;;;;;;;;;;4965013;28;20176;-82
2021/09/12 18:04:02;;;;;;;5.57;2.27;;;;;;;;;;4947862;28;20050;-82
2021/09/12 18:06:28;;;;;;;6.80;2.70;;;;;;;;;;4971185;28;20110;-80
2021/09/12 18:08:53;;;;;;;3.73;2.30;;;;;;;;;;4963862;28;20053;-81
2021/09/12 18:11:19;;;;;;;4.30;2.50;;;;;;;;;;4997961;28;20038;-81
2021/09/12 18:13:44;;;;;;;5.53;2.30;;;;;;;;;;4967191;28;20053;-82
2021/09/12 18:16:09;;;;;;;4.33;2.50;;;;;;;;;;4962559;28;20022;-80
2021/09/12 18:18:35;;;;;;;4.43;2.70;;;;;;;;;;4979347;28;20046;-81
2021/09/12 18:21:00;;;;;;;7.20;2.90;;;;;;;;;;4982275;28;20032;-81
2021/09/12 18:23:25;;;;;;;4.30;2.43;;;;;;;;;;4982779;28;20500;-80
2021/09/12 18:25:52;;;;;;;4.50;2.80;;;;;;;;;;4982355;28;20046;-82
2021/09/12 18:28:17;;;;;;;4.43;2.90;;;;;;;;;;4983461;28;20032;-81
2021/09/12 18:30:43;;;;;;;5.27;2.77;;;;;;;;;;4982896;28;20400;-81
2021/09/12 18:33:09;;;;;;;4.15;2.50;;;;;;;;;;4998655;28;20034;-81
2021/09/12 18:35:35;;;;;;;4.38;2.50;;;;;;;;;;4977171;28;20489;-81
2021/09/12 18:38:00;;;;;;;5.80;2.97;;;;;;;;;;4994710;28;20033;-81
2021/09/12 18:40:26;;;;;;;4.70;2.70;;;;;;;;;;4981387;28;20116;-81
2021/09/12 18:43:11;;;;;;;4.75;2.78;;;;;;;;;;4977678;28;20033;-84
2021/09/12 18:45:36;;;;;;;5.93;2.50;;;;;;;;;;4990153;28;20436;-81
2021/09/12 18:48:02;;;;;;;6.03;3.10;;;;;;;;;;4981198;28;20025;-81
2021/09/12 18:50:27;;;;;;;6.40;2.80;;;;;;;;;;4989434;28;20065;-81
2021/09/12 18:52:53;;;;;;;5.40;2.83;;;;;;;;;;4998009;28;20484;-81
2021/09/12 18:55:18;;;;;;;6.50;3.00;;;;;;;;;;4996828;28;20037;-80
2021/09/12 18:57:43;;;;;;;7.30;3.20;;;;;;;;;;4997252;28;20488;-81
2021/09/12 19:00:09;;;;;;;6.43;2.80;;;;;;;;;;4998078;28;20029;-80
2021/09/12 19:02:36;;;;;;;6.27;3.00;;;;;;;;;;4988990;28;20033;-81
2021/09/12 19:05:01;;;;;;;5.85;2.90;;;;;;;;;;4996914;28;20036;-81
2021/09/12 19:07:27;;;;;;;6.47;2.70;;;;;;;;;;4981753;28;20030;-81
2021/09/12 19:09:53;;;;;;;5.38;2.63;;;;;;;;;;4997988;28;20065;-80
2021/09/12 19:12:18;;;;;;;6.73;2.63;;;;;;;;;;4996570;28;20484;-81
2021/09/12 19:14:45;;;;;;;5.30;2.67;;;;;;;;;;4996366;28;20038;-80
2021/09/12 19:17:16;;;;;;;5.32;3.05;;;;;;;;;;4978344;28;20026;-81
2021/09/12 19:19:41;;;;;;;5.60;3.25;;;;;;;;;;4963818;28;20052;-81
2021/09/12 19:22:06;;;;;;;6.10;3.37;;;;;;;;;;4962134;28;20545;-81
2021/09/12 19:24:32;;;;;;;6.30;3.67;;;;;;;;;;4963146;28;20153;-81
2021/09/12 19:26:57;;;;;;;6.37;3.33;;;;;;;;;;4968152;28;20018;-80
2021/09/12 19:29:22;;;;;;;4.33;2.47;;;;;;;;;;4988753;28;20107;-80
2021/09/12 19:31:48;;;;;;;6.60;2.43;;;;;;;;;;4954172;28;20403;-80
2021/09/12 19:34:13;;;;;;;4.53;2.83;;;;;;;;;;4975282;28;20104;-80
2021/09/12 19:36:39;;;;;;;6.77;2.80;;;;;;;;;;4979394;28;20535;-79
2021/09/12 19:39:04;;;;;;;6.13;2.87;;;;;;;;;;4999790;28;20037;-80
2021/09/12 19:41:30;;;;;;;5.13;2.83;;;;;;;;;;5016474;28;20022;-80
2021/09/12 19:43:55;;;;;;;5.27;3.03;;;;;;;;;;4993679;28;20114;-80
2021/09/12 19:46:20;;;;;;;5.33;2.77;;;;;;;;;;4964014;28;20105;-80
2021/09/12 19:48:46;;;;;;;5.63;2.90;;;;;;;;;;4964121;28;20030;-79
2021/09/12 19:51:11;;;;;;;5.20;3.10;;;;;;;;;;4964725;28;20032;-80
2021/09/12 19:53:41;;;;;;;5.20;2.90;;;;;;;;;;4963842;28;20061;-80
2021/09/12 19:56:08;;;;;;;6.32;3.05;;;;;;;;;;4965357;28;20052;-80
2021/09/12 19:58:33;;;;;;;;;;;;;;;;;;4994344;28;20032;-81
2021/09/12 20:00:58;;;;;;;4.97;2.95;;;;;;;;;;4980163;28;19909;-80